Time;durP1;ratioP1;P1;durP2;ratioP2;P2;SDS_P1;SDS_P2;PMS_P1;PMS_P2;Temp;Humidity;BMP_temperature;BMP_pressure;BME280_temperature;BME280_humidity;BME280_pressure;Samples;Min_cycle;Max_cycle;Signal;HPM_P1;HPM_P2
2022/03/09 00:01:26;;;;;;;8.40;5.45;;;3.50;95.40;;;;;;4899788;29;20041;-92
2022/03/09 00:03:51;;;;;;;9.02;5.97;;;3.50;95.50;;;;;;4902597;29;20476;-92
2022/03/09 00:06:17;;;;;;;9.15;5.85;;;3.40;95.90;;;;;;4902254;29;20100;-93
2022/03/09 00:08:43;;;;;;;8.60;5.75;;;3.30;95.70;;;;;;4902528;29;20044;-91
2022/03/09 00:11:09;;;;;;;12.40;6.38;;;3.20;95.80;;;;;;4902360;29;20063;-92
2022/03/09 00:13:37;;;;;;;9.93;6.70;;;3.10;95.90;;;;;;4902257;29;20036;-91
2022/03/09 00:16:02;;;;;;;8.98;6.20;;;3.00;96.00;;;;;;4902156;29;20063;-91
2022/03/09 00:18:28;;;;;;;8.77;5.50;;;3.00;96.20;;;;;;4901773;29;20028;-91
2022/03/09 00:20:54;;;;;;;10.43;6.05;;;2.90;96.40;;;;;;4901786;29;20567;-92
2022/03/09 00:23:19;;;;;;;8.75;5.95;;;2.80;96.50;;;;;;4902100;29;20089;-91
2022/03/09 00:25:45;;;;;;;9.23;6.07;;;2.80;96.60;;;;;;4902437;29;20072;-91
2022/03/09 00:28:11;;;;;;;10.60;6.20;;;2.70;96.70;;;;;;4902028;29;20033;-91
2022/03/09 00:30:36;;;;;;;10.13;6.93;;;2.70;96.80;;;;;;4902026;29;20056;-91
2022/03/09 00:33:02;;;;;;;9.60;6.63;;;2.70;96.90;;;;;;4902024;29;20447;-91
2022/03/09 00:35:28;;;;;;;9.93;6.15;;;2.70;97.00;;;;;;4901529;29;20107;-90
2022/03/09 00:37:53;;;;;;;10.80;6.90;;;2.60;97.00;;;;;;4902620;29;20037;-92
2022/03/09 00:40:19;;;;;;;10.20;6.13;;;2.60;97.20;;;;;;4903991;29;20040;-92
2022/03/09 00:42:45;;;;;;;9.82;6.47;;;2.50;97.30;;;;;;4903385;29;20104;-92
2022/03/09 00:45:11;;;;;;;10.85;6.65;;;2.40;97.30;;;;;;4904687;29;20060;-90
2022/03/09 00:47:37;;;;;;;11.73;7.25;;;2.40;97.50;;;;;;4902781;29;20055;-92
2022/03/09 00:50:04;;;;;;;9.27;6.30;;;2.40;97.60;;;;;;4901531;29;20028;-91
2022/03/09 00:52:31;;;;;;;9.98;6.15;;;2.30;97.80;;;;;;4901268;29;20479;-92
2022/03/09 00:54:57;;;;;;;9.23;5.70;;;2.30;97.90;;;;;;4901197;29;20076;-91
2022/03/09 00:57:23;;;;;;;9.52;6.25;;;2.20;98.00;;;;;;4901001;29;20036;-92
2022/03/09 00:59:48;;;;;;;10.02;6.45;;;2.20;98.20;;;;;;4900685;29;20522;-90
2022/03/09 01:02:14;;;;;;;10.55;6.70;;;2.20;98.20;;;;;;4901055;29;20132;-91
2022/03/09 01:04:40;;;;;;;8.73;5.85;;;2.10;98.40;;;;;;4901566;29;20033;-92
2022/03/09 01:07:06;;;;;;;10.77;6.45;;;2.10;98.50;;;;;;4901783;29;20048;-91
2022/03/09 01:09:32;;;;;;;10.35;6.80;;;2.10;98.60;;;;;;4902260;29;20036;-91
2022/03/09 01:12:00;;;;;;;10.68;5.90;;;2.10;98.60;;;;;;4901465;29;20123;-92
2022/03/09 01:14:26;;;;;;;8.80;5.70;;;2.10;98.70;;;;;;4900115;29;20044;-91
2022/03/09 01:16:51;;;;;;;9.75;6.00;;;2.10;98.80;;;;;;4900369;29;20039;-92
2022/03/09 01:19:17;;;;;;;9.75;6.15;;;2.10;98.80;;;;;;4900407;29;20029;-91
2022/03/09 01:21:43;;;;;;;9.63;5.90;;;2.10;98.90;;;;;;4900277;29;20483;-91
2022/03/09 01:24:08;;;;;;;10.18;6.18;;;2.00;99.00;;;;;;4899859;29;20037;-91
2022/03/09 01:26:35;;;;;;;9.75;5.72;;;2.00;99.10;;;;;;4901006;29;20048;-92
2022/03/09 01:29:00;;;;;;;9.23;5.95;;;2.00;99.20;;;;;;4900855;29;20056;-91
2022/03/09 01:31:26;;;;;;;9.65;5.85;;;1.90;99.30;;;;;;4901358;29;20032;-91
2022/03/09 01:33:52;;;;;;;9.43;5.95;;;1.90;99.40;;;;;;4900667;29;20088;-91
2022/03/09 01:36:18;;;;;;;9.65;6.25;;;1.90;99.40;;;;;;4901101;29;20097;-90
2022/03/09 01:38:43;;;;;;;9.88;5.70;;;1.90;99.50;;;;;;4900670;29;20056;-93
2022/03/09 01:41:09;;;;;;;9.13;5.93;;;1.80;99.60;;;;;;4900483;29;20086;-92
2022/03/09 01:43:35;;;;;;;8.88;5.68;;;1.80;99.70;;;;;;4900855;29;20123;-90
2022/03/09 01:46:01;;;;;;;8.85;5.57;;;1.80;99.70;;;;;;4900562;29;20128;-91
2022/03/09 01:48:26;;;;;;;12.75;6.47;;;1.80;99.80;;;;;;4899872;29;20404;-91
2022/03/09 01:50:52;;;;;;;9.48;6.10;;;1.80;99.90;;;;;;4900012;29;20032;-91
2022/03/09 01:53:18;;;;;;;10.07;5.78;;;1.80;99.90;;;;;;4899957;29;20028;-91
2022/03/09 01:55:45;;;;;;;9.25;6.05;;;1.80;99.90;;;;;;4899772;29;20088;-91
2022/03/09 01:58:10;;;;;;;10.30;6.25;;;1.70;99.90;;;;;;4899630;29;20040;-91
2022/03/09 02:00:36;;;;;;;9.98;5.60;;;1.70;99.90;;;;;;4900823;29;20468;-92
2022/03/09 02:03:02;;;;;;;9.50;6.10;;;1.70;99.90;;;;;;4900696;29;20060;-92
2022/03/09 02:05:28;;;;;;;10.20;5.90;;;1.70;99.90;;;;;;4902007;29;20115;-91
2022/03/09 02:10:40;;;;;;;8.13;4.85;;;1.70;99.90;;;;;;4901979;29;20073;-92
2022/03/09 02:13:15;;;;;;;8.93;5.55;;;1.70;99.90;;;;;;4901269;29;20032;-92
2022/03/09 02:15:44;;;;;;;8.05;5.00;;;1.60;99.90;;;;;;4901630;29;20464;-92
2022/03/09 02:18:14;;;;;;;9.50;5.65;;;1.60;99.90;;;;;;4902251;29;20060;-91
2022/03/09 02:20:48;;;;;;;9.32;5.47;;;1.50;99.90;;;;;;4902067;29;20044;-91
2022/03/09 02:23:16;;;;;;;9.23;5.55;;;1.60;99.90;;;;;;4901473;29;20572;-91
2022/03/09 02:25:42;;;;;;;9.27;5.32;;;1.60;99.90;;;;;;4903692;29;20045;-92
2022/03/09 02:28:12;;;;;;;9.45;5.35;;;1.60;99.90;;;;;;4903432;29;20039;-92
2022/03/09 02:30:38;;;;;;;11.70;5.80;;;1.60;99.90;;;;;;4901824;29;20040;-90
2022/03/09 02:33:04;;;;;;;8.77;5.05;;;1.60;99.90;;;;;;4900646;29;20399;-92
2022/03/09 02:35:31;;;;;;;8.57;5.70;;;1.60;99.90;;;;;;4906427;29;20396;-92
2022/03/09 02:38:23;;;;;;;9.25;5.32;;;1.60;99.90;;;;;;4904173;29;20211;-92
2022/03/09 02:40:58;;;;;;;8.43;5.32;;;1.60;99.90;;;;;;4908348;29;20033;-92
2022/03/09 02:43:39;;;;;;;;;;;;;;;;;;;;;
2022/03/09 02:46:19;;;;;;;8.60;5.35;;;1.50;99.90;;;;;;4914465;29;20068;-90
2022/03/09 02:48:48;;;;;;;10.25;5.15;;;1.40;99.90;;;;;;4908682;29;20100;-90
2022/03/09 02:51:14;;;;;;;9.15;5.65;;;1.40;99.90;;;;;;4914571;29;20037;-92
2022/03/09 02:53:50;;;;;;;;;;;;;;;;;;;;;
2022/03/09 02:56:44;;;;;;;8.82;5.03;;;1.30;99.90;;;;;;4917476;29;20041;-89
2022/03/09 02:59:15;;;;;;;;;;;1.30;99.90;;;;;;4918197;29;20053;-90
2022/03/09 03:01:44;;;;;;;10.00;5.55;;;1.30;99.90;;;;;;4903008;29;19911;-92
2022/03/09 03:04:10;;;;;;;8.90;5.75;;;1.20;99.90;;;;;;4917919;29;20073;-90
2022/03/09 03:06:35;;;;;;;9.25;5.43;;;1.20;99.90;;;;;;4917649;29;20113;-91
2022/03/09 03:09:11;;;;;;;10.32;5.50;;;1.20;99.90;;;;;;4918373;29;20025;-91
2022/03/09 03:11:45;;;;;;;9.07;5.43;;;1.20;99.90;;;;;;4917214;29;20108;-91
2022/03/09 03:14:16;;;;;;;9.15;5.78;;;1.10;99.90;;;;;;4914562;29;20484;-92
2022/03/09 03:16:48;;;;;;;8.68;5.40;;;1.10;99.90;;;;;;4914067;29;20048;-89
2022/03/09 03:19:14;;;;;;;10.05;6.25;;;1.10;99.90;;;;;;4911375;29;20073;-93
2022/03/09 03:21:46;;;;;;;11.13;5.80;;;1.00;99.90;;;;;;4911721;29;20041;-91
2022/03/09 03:24:29;;;;;;;10.27;5.50;;;1.00;99.90;;;;;;4907307;29;20035;-92
2022/03/09 03:26:58;;;;;;;10.55;5.80;;;1.00;99.90;;;;;;4902265;29;20052;-91
2022/03/09 03:29:34;;;;;;;9.65;5.97;;;1.00;99.90;;;;;;4903060;29;20040;-91
2022/03/09 03:32:00;;;;;;;10.25;6.03;;;0.90;99.90;;;;;;4908390;29;20037;-89
2022/03/09 03:34:26;;;;;;;10.45;6.35;;;0.90;99.90;;;;;;4908550;29;20032;-92
2022/03/09 03:37:03;;;;;;;11.43;6.65;;;0.80;99.90;;;;;;4904850;29;20384;-91
2022/03/09 03:39:41;;;;;;;9.80;6.03;;;0.80;99.90;;;;;;4905154;29;20032;-92
2022/03/09 03:42:17;;;;;;;10.93;6.05;;;0.70;99.90;;;;;;4904698;29;20041;-91
2022/03/09 03:44:45;;;;;;;11.07;6.20;;;0.70;99.90;;;;;;4903822;29;20128;-91
2022/03/09 03:47:11;;;;;;;10.27;6.60;;;0.70;99.90;;;;;;4904216;29;20045;-91
2022/03/09 03:49:37;;;;;;;10.45;6.13;;;0.70;99.90;;;;;;4903536;29;20043;-90
2022/03/09 03:52:03;;;;;;;10.18;6.43;;;0.70;99.90;;;;;;4904111;29;20091;-90
2022/03/09 03:54:43;;;;;;;10.43;6.53;;;0.60;99.90;;;;;;4903357;29;20094;-90
2022/03/09 03:57:20;;;;;;;10.68;5.88;;;0.60;99.90;;;;;;4902757;29;20044;-90
2022/03/09 03:59:57;;;;;;;9.93;5.95;;;0.60;99.90;;;;;;4903250;29;20052;-90
2022/03/09 04:02:23;;;;;;;8.75;5.65;;;0.60;99.90;;;;;;4903337;29;20037;-91
2022/03/09 04:04:50;;;;;;;10.10;6.18;;;0.50;99.90;;;;;;4903136;29;20084;-90
2022/03/09 04:07:16;;;;;;;12.35;6.25;;;0.50;99.90;;;;;;4902805;29;20048;-91
2022/03/09 04:09:42;;;;;;;9.95;6.35;;;0.50;99.90;;;;;;4902884;29;20498;-91
2022/03/09 04:12:09;;;;;;;13.32;6.25;;;0.50;99.90;;;;;;4902665;29;20032;-91
2022/03/09 04:14:35;;;;;;;9.98;6.50;;;0.50;99.90;;;;;;4902840;29;20037;-91
2022/03/09 04:17:00;;;;;;;11.10;6.22;;;0.50;99.90;;;;;;4902248;29;20032;-90
2022/03/09 04:19:26;;;;;;;10.27;6.63;;;0.50;99.90;;;;;;4902110;29;20483;-91
2022/03/09 04:21:52;;;;;;;9.93;5.93;;;0.40;99.90;;;;;;4902246;29;20029;-90
2022/03/09 04:24:18;;;;;;;10.75;6.47;;;0.40;99.90;;;;;;4902117;29;20033;-91
2022/03/09 04:26:44;;;;;;;10.07;6.47;;;0.40;99.90;;;;;;4901988;29;20076;-92
2022/03/09 04:29:10;;;;;;;9.15;5.72;;;0.40;99.90;;;;;;4902423;29;20044;-91
2022/03/09 04:31:35;;;;;;;10.05;5.70;;;0.40;99.90;;;;;;4902238;29;20032;-91
2022/03/09 04:34:01;;;;;;;9.40;5.85;;;0.40;99.90;;;;;;4902242;29;20700;-92
2022/03/09 04:36:27;;;;;;;8.55;5.75;;;0.40;99.90;;;;;;4901928;29;20056;-91
2022/03/09 04:38:52;;;;;;;10.00;5.57;;;0.40;99.90;;;;;;4902556;29;20407;-91
2022/03/09 04:41:18;;;;;;;10.02;5.30;;;0.40;99.90;;;;;;4901454;29;20097;-91
2022/03/09 04:43:44;;;;;;;9.55;5.57;;;0.40;99.90;;;;;;4901991;29;20139;-92
2022/03/09 04:46:09;;;;;;;8.60;4.85;;;0.40;99.90;;;;;;4901321;29;20045;-91
2022/03/09 04:48:35;;;;;;;10.43;6.82;;;0.40;99.90;;;;;;4899667;29;20056;-90
2022/03/09 04:51:02;;;;;;;11.75;6.20;;;0.40;99.90;;;;;;4901244;29;20475;-91
2022/03/09 04:53:29;;;;;;;9.68;5.43;;;0.40;99.90;;;;;;4900919;29;20452;-89
2022/03/09 04:55:55;;;;;;;10.40;6.22;;;0.50;99.90;;;;;;4901023;29;20045;-91
2022/03/09 04:58:21;;;;;;;10.70;5.78;;;0.50;99.90;;;;;;4901253;29;20476;-90
2022/03/09 05:00:47;;;;;;;9.55;5.18;;;0.50;99.90;;;;;;4900583;29;20029;-91
2022/03/09 05:03:13;;;;;;;10.05;5.78;;;0.50;99.90;;;;;;4900760;29;20701;-91
2022/03/09 05:05:39;;;;;;;10.20;6.10;;;0.50;99.90;;;;;;4901099;29;20415;-89
2022/03/09 05:08:04;;;;;;;11.18;5.70;;;0.50;99.90;;;;;;4901406;29;20048;-91
2022/03/09 05:10:31;;;;;;;7.90;5.15;;;0.50;99.90;;;;;;4901444;29;20037;-92
2022/03/09 05:12:57;;;;;;;9.75;5.63;;;0.50;99.90;;;;;;4901555;29;20040;-91
2022/03/09 05:15:23;;;;;;;12.85;6.43;;;0.50;99.90;;;;;;4901133;29;20384;-90
2022/03/09 05:17:49;;;;;;;8.57;5.13;;;0.50;99.90;;;;;;4901432;29;20055;-92
2022/03/09 05:20:15;;;;;;;9.63;5.85;;;0.50;99.90;;;;;;4900873;29;20093;-91
2022/03/09 05:22:42;;;;;;;10.25;5.88;;;0.50;99.90;;;;;;4900905;29;20408;-91
2022/03/09 05:25:08;;;;;;;9.52;5.55;;;0.50;99.90;;;;;;4900898;29;20028;-92
2022/03/09 05:27:35;;;;;;;11.30;6.13;;;0.40;99.90;;;;;;4900826;29;20045;-91
2022/03/09 05:30:03;;;;;;;9.60;5.60;;;0.40;99.90;;;;;;4901237;29;20029;-90
2022/03/09 05:32:28;;;;;;;10.68;5.53;;;0.40;99.90;;;;;;4895720;29;20044;-89
2022/03/09 05:34:54;;;;;;;9.75;5.40;;;0.30;99.90;;;;;;4896458;29;20037;-88
2022/03/09 05:37:22;;;;;;;9.80;5.50;;;0.30;99.90;;;;;;4903961;29;20079;-89
2022/03/09 05:39:48;;;;;;;9.82;5.80;;;0.30;99.90;;;;;;4900102;29;20459;-88
2022/03/09 05:42:14;;;;;;;11.00;6.35;;;0.20;99.90;;;;;;4900252;29;20043;-88
2022/03/09 05:44:39;;;;;;;9.25;5.60;;;0.20;99.90;;;;;;4915297;29;20556;-87
2022/03/09 05:47:06;;;;;;;10.00;6.07;;;0.20;99.90;;;;;;4916226;29;20619;-87
2022/03/09 05:49:31;;;;;;;9.45;5.50;;;0.20;99.90;;;;;;4898738;29;20036;-87
2022/03/09 05:51:57;;;;;;;8.63;5.20;;;0.20;99.90;;;;;;4899366;29;20570;-88
2022/03/09 05:54:22;;;;;;;9.73;5.80;;;0.20;99.90;;;;;;4899472;29;20048;-87
2022/03/09 05:56:48;;;;;;;9.88;6.00;;;0.20;99.90;;;;;;4899683;29;20470;-88
2022/03/09 05:59:14;;;;;;;10.85;6.22;;;0.20;99.90;;;;;;4898949;29;20052;-87
2022/03/09 06:01:39;;;;;;;11.23;5.65;;;0.20;99.90;;;;;;4900288;29;20048;-89
2022/03/09 06:04:06;;;;;;;8.73;5.57;;;0.10;99.90;;;;;;4899886;29;20068;-88
2022/03/09 06:06:32;;;;;;;8.48;5.30;;;0.20;99.90;;;;;;4899634;29;20455;-87
2022/03/09 06:08:58;;;;;;;10.60;5.78;;;0.20;99.90;;;;;;4902437;29;20059;-91
2022/03/09 06:11:24;;;;;;;9.20;5.90;;;0.10;99.90;;;;;;4901331;29;20069;-87
2022/03/09 06:13:50;;;;;;;9.07;5.07;;;0.10;99.90;;;;;;4902250;29;20649;-88
2022/03/09 06:16:16;;;;;;;11.43;5.78;;;0.20;99.90;;;;;;4896074;29;20029;-84
2022/03/09 06:18:42;;;;;;;9.60;5.28;;;0.10;99.90;;;;;;4898575;29;20567;-85
2022/03/09 06:21:07;;;;;;;9.38;5.72;;;0.10;99.90;;;;;;4898713;29;20047;-86
2022/03/09 06:23:33;;;;;;;8.07;5.20;;;0.10;99.90;;;;;;4881950;29;20037;-87
2022/03/09 06:25:59;;;;;;;9.05;5.38;;;0.10;99.90;;;;;;4900021;29;20538;-86
2022/03/09 06:28:25;;;;;;;9.43;5.47;;;0.10;99.90;;;;;;4883166;29;20041;-88
2022/03/09 06:30:51;;;;;;;9.05;5.50;;;0.10;99.90;;;;;;4883013;29;20046;-86
2022/03/09 06:33:17;;;;;;;9.32;5.05;;;0.10;99.90;;;;;;4882166;29;20048;-90
2022/03/09 06:35:43;;;;;;;9.88;5.72;;;0.20;99.90;;;;;;4881994;29;20373;-89
2022/03/09 06:38:09;;;;;;;8.90;5.22;;;0.10;99.90;;;;;;4882474;29;20032;-88
2022/03/09 06:40:34;;;;;;;9.02;5.28;;;0.20;99.90;;;;;;4881886;29;20029;-90
2022/03/09 06:43:00;;;;;;;10.65;6.00;;;0.20;99.90;;;;;;4894746;29;20082;-89
2022/03/09 06:45:27;;;;;;;10.45;6.10;;;0.20;99.90;;;;;;4916910;29;20356;-89
2022/03/09 06:47:52;;;;;;;10.40;5.88;;;0.20;99.90;;;;;;4902264;29;20051;-89
2022/03/09 06:50:19;;;;;;;11.05;6.43;;;0.20;99.90;;;;;;4902404;29;20479;-89
2022/03/09 06:52:46;;;;;;;12.13;6.50;;;0.20;99.90;;;;;;4899413;29;20105;-90
2022/03/09 06:55:12;;;;;;;9.30;5.80;;;0.30;99.90;;;;;;4899416;29;20600;-90
2022/03/09 06:57:39;;;;;;;9.93;6.32;;;0.30;99.90;;;;;;4899388;29;20036;-91
2022/03/09 07:00:16;;;;;;;10.50;6.18;;;0.30;99.90;;;;;;4899299;29;20420;-91
2022/03/09 07:02:43;;;;;;;9.77;5.40;;;0.40;99.90;;;;;;4899088;29;20627;-90
2022/03/09 07:05:09;;;;;;;10.07;5.78;;;0.40;99.90;;;;;;4899588;29;20036;-89
2022/03/09 07:07:36;;;;;;;11.20;6.25;;;0.50;99.90;;;;;;4899147;29;20415;-90
2022/03/09 07:10:02;;;;;;;9.25;5.68;;;0.50;99.90;;;;;;4899714;29;20383;-90
2022/03/09 07:12:28;;;;;;;10.88;5.00;;;0.60;99.90;;;;;;4907837;29;20059;-89
2022/03/09 07:14:53;;;;;;;8.18;4.88;;;0.60;99.90;;;;;;4901703;29;20032;-88
2022/03/09 07:17:19;;;;;;;8.27;4.88;;;0.70;99.90;;;;;;4902301;29;20036;-89
2022/03/09 07:19:45;;;;;;;10.45;5.95;;;0.80;99.90;;;;;;4901816;29;20121;-89
2022/03/09 07:22:11;;;;;;;10.43;5.05;;;0.90;99.90;;;;;;4899294;29;20033;-90
2022/03/09 07:24:36;;;;;;;7.40;4.88;;;1.00;99.90;;;;;;4908934;29;20127;-88
2022/03/09 07:27:03;;;;;;;10.30;5.38;;;1.10;99.90;;;;;;4897919;29;20479;-90
2022/03/09 07:29:29;;;;;;;10.00;5.35;;;1.20;99.90;;;;;;4883230;29;20494;-89
2022/03/09 07:31:54;;;;;;;10.02;5.65;;;1.40;99.90;;;;;;4883498;29;20147;-90
2022/03/09 07:34:22;;;;;;;10.20;5.70;;;1.50;99.90;;;;;;4883240;29;20365;-89
2022/03/09 07:36:49;;;;;;;8.52;5.20;;;1.60;99.90;;;;;;4899148;29;20036;-90
2022/03/09 07:39:15;;;;;;;9.25;5.35;;;1.80;99.90;;;;;;4899318;29;20041;-90
2022/03/09 07:41:41;;;;;;;9.93;5.38;;;1.90;99.90;;;;;;4883471;29;20036;-89
2022/03/09 07:44:07;;;;;;;7.93;4.70;;;2.10;99.90;;;;;;4883337;29;20091;-89
2022/03/09 07:46:32;;;;;;;8.50;5.30;;;2.30;99.90;;;;;;4900442;29;20044;-89
2022/03/09 07:48:58;;;;;;;8.52;5.13;;;2.40;99.90;;;;;;4902774;29;20025;-90
2022/03/09 07:51:23;;;;;;;7.18;4.72;;;2.60;99.90;;;;;;4906723;29;20483;-89
2022/03/09 07:53:49;;;;;;;9.63;5.47;;;2.70;99.90;;;;;;4902946;29;20036;-89
2022/03/09 07:56:15;;;;;;;8.77;5.13;;;2.80;99.90;;;;;;4904926;29;20103;-90
2022/03/09 07:58:40;;;;;;;8.45;5.15;;;2.90;99.90;;;;;;4904423;29;20044;-90
2022/03/09 08:01:06;;;;;;;10.00;6.97;;;2.90;99.90;;;;;;4904493;29;20048;-90
2022/03/09 08:03:33;;;;;;;13.13;7.47;;;3.00;99.90;;;;;;4884531;29;20119;-93
2022/03/09 08:05:59;;;;;;;13.23;7.60;;;3.20;99.90;;;;;;4899256;29;20033;-91
2022/03/09 08:08:25;;;;;;;11.77;7.25;;;3.30;99.90;;;;;;4890589;29;20089;-90
2022/03/09 08:10:51;;;;;;;13.60;7.32;;;3.40;99.90;;;;;;4900546;29;20029;-91
2022/03/09 08:13:17;;;;;;;12.48;7.45;;;3.50;99.90;;;;;;4911538;29;20052;-90
2022/03/09 08:15:43;;;;;;;13.10;7.40;;;3.50;99.90;;;;;;4902519;29;20036;-90
2022/03/09 08:18:09;;;;;;;14.43;8.48;;;3.60;99.90;;;;;;4902674;29;20076;-90
2022/03/09 08:20:35;;;;;;;15.38;8.95;;;3.60;99.90;;;;;;4902388;29;20045;-90
2022/03/09 08:23:01;;;;;;;13.63;8.48;;;3.70;99.90;;;;;;4904973;29;20020;-90
2022/03/09 08:25:26;;;;;;;12.45;7.93;;;3.80;99.90;;;;;;4906308;29;20510;-90
2022/03/09 08:27:52;;;;;;;12.20;8.02;;;3.90;99.90;;;;;;4905790;29;20039;-90
2022/03/09 08:30:18;;;;;;;10.60;7.25;;;3.90;99.90;;;;;;4902734;29;20225;-90
2022/03/09 08:32:43;;;;;;;10.48;6.82;;;3.90;99.90;;;;;;4897765;29;20025;-91
2022/03/09 08:35:09;;;;;;;11.07;6.75;;;4.00;99.90;;;;;;4901943;29;20036;-91
2022/03/09 08:37:34;;;;;;;11.65;7.03;;;4.10;99.90;;;;;;4887262;29;20044;-89
2022/03/09 08:40:00;;;;;;;11.13;6.53;;;4.10;99.90;;;;;;4889268;29;20039;-88
2022/03/09 08:42:26;;;;;;;11.30;7.00;;;4.20;99.90;;;;;;4895110;29;20023;-88
2022/03/09 08:44:52;;;;;;;10.35;7.38;;;4.30;99.90;;;;;;4905878;29;20538;-89
2022/03/09 08:47:18;;;;;;;10.65;7.10;;;4.40;99.90;;;;;;4901452;29;20509;-89
2022/03/09 08:49:43;;;;;;;10.07;6.88;;;4.50;99.90;;;;;;4906595;29;20081;-89
2022/03/09 08:52:12;;;;;;;10.85;7.38;;;4.60;99.90;;;;;;4910910;29;20063;-90
2022/03/09 08:54:40;;;;;;;11.75;7.53;;;4.70;99.90;;;;;;4904867;29;20061;-91
2022/03/09 08:57:06;;;;;;;12.63;6.82;;;4.70;99.90;;;;;;4904261;29;20283;-90
2022/03/09 08:59:31;;;;;;;9.95;6.15;;;4.80;99.90;;;;;;4903439;29;20048;-91
2022/03/09 09:01:57;;;;;;;9.50;6.55;;;4.90;99.90;;;;;;4901475;29;20044;-90
2022/03/09 09:04:23;;;;;;;9.90;6.85;;;5.00;99.90;;;;;;4935484;29;20067;-90
2022/03/09 09:06:49;;;;;;;10.75;7.13;;;5.10;99.90;;;;;;4910525;29;20045;-92
2022/03/09 09:09:17;;;;;;;12.32;7.20;;;5.30;99.90;;;;;;4903014;29;20144;-91
2022/03/09 09:11:43;;;;;;;9.90;6.75;;;5.40;99.90;;;;;;4920427;29;20032;-92
2022/03/09 09:14:09;;;;;;;9.93;6.60;;;5.50;99.90;;;;;;4902696;29;20043;-93
2022/03/09 09:16:35;;;;;;;12.93;7.90;;;5.60;99.90;;;;;;4887734;29;20045;-92
2022/03/09 09:19:01;;;;;;;11.35;8.23;;;5.70;99.90;;;;;;4889759;29;20063;-91
2022/03/09 09:21:28;;;;;;;12.52;7.78;;;5.80;99.90;;;;;;4909670;29;20033;-91
2022/03/09 09:23:54;;;;;;;11.02;7.35;;;6.00;99.20;;;;;;4889944;29;20060;-91
2022/03/09 09:26:20;;;;;;;13.13;8.52;;;6.10;99.50;;;;;;4901995;29;20048;-91
2022/03/09 09:28:45;;;;;;;12.43;8.43;;;6.20;98.00;;;;;;4904595;29;20036;-91
2022/03/09 09:31:11;;;;;;;12.77;7.70;;;6.30;98.30;;;;;;4904708;29;20040;-89
2022/03/09 09:33:36;;;;;;;11.63;7.93;;;6.40;98.30;;;;;;4888147;29;20127;-89
2022/03/09 09:36:03;;;;;;;13.88;9.10;;;6.60;97.80;;;;;;4911379;29;20043;-91
2022/03/09 09:38:29;;;;;;;12.60;7.57;;;6.90;97.80;;;;;;4902061;29;20429;-91
2022/03/09 09:40:55;;;;;;;13.32;8.45;;;8.30;98.40;;;;;;4902153;29;20047;-91
2022/03/09 09:43:22;;;;;;;11.60;7.65;;;10.00;96.00;;;;;;4902498;29;20089;-88
2022/03/09 09:45:48;;;;;;;12.70;8.30;;;11.50;95.10;;;;;;4903572;29;20421;-90
2022/03/09 09:48:19;;;;;;;10.73;6.97;;;12.50;91.00;;;;;;4907472;29;20225;-89
2022/03/09 09:50:45;;;;;;;11.90;8.55;;;13.40;90.90;;;;;;4901319;29;20049;-89
2022/03/09 09:53:14;;;;;;;10.80;7.88;;;14.30;88.30;;;;;;4889793;29;20043;-91
2022/03/09 09:55:41;;;;;;;10.57;7.30;;;15.00;84.50;;;;;;4892242;29;20037;-90
2022/03/09 09:58:07;;;;;;;9.60;6.78;;;15.40;84.00;;;;;;4888589;29;20063;-91
2022/03/09 10:00:33;;;;;;;9.10;6.75;;;16.00;83.00;;;;;;4910627;29;20104;-90
2022/03/09 10:02:59;;;;;;;8.55;6.30;;;16.50;81.50;;;;;;4900149;29;20091;-89
2022/03/09 10:05:26;;;;;;;9.35;6.80;;;16.90;80.90;;;;;;4905177;29;20016;-91
2022/03/09 10:08:04;;;;;;;11.43;6.20;;;17.30;78.70;;;;;;4926182;29;20115;-90
2022/03/09 10:10:39;;;;;;;10.50;7.18;;;17.70;77.50;;;;;;4915245;29;20103;-89
2022/03/09 10:13:22;;;;;;;8.10;5.95;;;18.10;76.30;;;;;;4920489;29;20517;-90
2022/03/09 10:16:07;;;;;;;9.90;7.97;;;18.50;75.60;;;;;;4913577;29;20037;-90
2022/03/09 10:18:33;;;;;;;10.85;8.27;;;18.80;70.20;;;;;;4898097;29;20033;-89
2022/03/09 10:21:17;;;;;;;10.60;8.45;;;18.50;66.40;;;;;;4912868;29;20076;-90
2022/03/09 10:24:07;;;;;;;9.82;7.30;;;18.50;67.40;;;;;;4901484;29;20040;-91
2022/03/09 10:26:38;;;;;;;11.82;9.52;;;18.80;67.00;;;;;;4908612;29;20028;-91
2022/03/09 10:29:07;;;;;;;10.07;7.75;;;18.80;62.70;;;;;;4899338;29;20132;-89
2022/03/09 10:31:41;;;;;;;9.45;6.78;;;18.90;64.70;;;;;;4907651;29;20036;-91
2022/03/09 10:34:24;;;;;;;15.02;9.60;;;19.30;65.30;;;;;;4892874;29;20040;-90
2022/03/09 10:36:56;;;;;;;12.90;9.07;;;19.30;62.30;;;;;;4899881;29;20036;-90
2022/03/09 10:39:24;;;;;;;11.98;8.85;;;19.10;60.80;;;;;;4903955;29;20029;-92
2022/03/09 10:41:50;;;;;;;13.55;9.27;;;19.10;61.20;;;;;;4899170;29;20107;-90
2022/03/09 10:44:16;;;;;;;12.35;9.55;;;19.10;59.90;;;;;;4887874;29;20513;-90
2022/03/09 10:46:48;;;;;;;12.75;10.07;;;18.80;59.90;;;;;;4902252;29;20108;-91
2022/03/09 10:49:18;;;;;;;12.77;9.55;;;18.80;60.20;;;;;;4905104;29;20075;-91
2022/03/09 10:51:50;;;;;;;12.45;8.40;;;18.90;60.70;;;;;;4884432;29;20028;-91
2022/03/09 10:54:28;;;;;;;16.52;9.70;;;19.10;61.40;;;;;;4898086;29;20039;-90
2022/03/09 10:57:12;;;;;;;10.98;8.13;;;19.50;60.90;;;;;;4899796;29;20077;-90
2022/03/09 10:59:49;;;;;;;10.95;7.75;;;20.10;61.30;;;;;;4900682;29;20060;-90
2022/03/09 11:02:21;;;;;;;14.95;11.32;;;20.70;61.50;;;;;;4883827;29;20049;-91
2022/03/09 11:05:09;;;;;;;16.20;11.52;;;20.90;59.10;;;;;;4901435;29;20029;-92
2022/03/09 11:07:37;;;;;;;15.02;10.02;;;20.90;57.80;;;;;;4912946;29;20053;-90
2022/03/09 11:10:04;;;;;;;16.35;11.70;;;20.70;58.40;;;;;;4884617;29;20020;-91
2022/03/09 11:12:30;;;;;;;16.38;10.85;;;20.50;56.10;;;;;;4883497;29;20148;-90
2022/03/09 11:14:57;;;;;;;11.68;9.00;;;20.30;57.60;;;;;;4883495;29;20076;-90
2022/03/09 11:17:23;;;;;;;14.57;10.98;;;20.60;58.40;;;;;;4890595;29;20122;-89
2022/03/09 11:19:49;;;;;;;13.27;10.00;;;20.80;56.90;;;;;;4898956;29;20139;-85
2022/03/09 11:22:15;;;;;;;13.32;9.98;;;20.80;56.70;;;;;;4895824;29;20041;-88
2022/03/09 11:24:41;;;;;;;17.60;13.57;;;21.00;57.70;;;;;;4879190;29;20032;-85
2022/03/09 11:27:08;;;;;;;16.63;11.82;;;21.10;54.30;;;;;;4879682;29;20072;-87
2022/03/09 11:29:35;;;;;;;15.57;11.30;;;20.90;55.40;;;;;;4902715;29;20045;-88
2022/03/09 11:32:09;;;;;;;16.48;11.20;;;20.80;55.60;;;;;;4895741;29;20037;-88
2022/03/09 11:34:48;;;;;;;13.88;10.85;;;20.70;54.60;;;;;;4895896;29;20412;-90
2022/03/09 11:37:18;;;;;;;15.98;11.40;;;20.70;56.40;;;;;;4882430;29;20456;-88
2022/03/09 11:40:10;;;;;;;17.27;10.85;;;21.10;56.90;;;;;;4882507;29;20039;-87
2022/03/09 11:42:41;;;;;;;15.40;11.50;;;21.30;55.90;;;;;;4881935;29;20047;-87
2022/03/09 11:45:29;;;;;;;18.95;12.20;;;21.30;54.90;;;;;;4887742;29;20168;-87
2022/03/09 11:48:10;;;;;;;18.40;12.43;;;21.30;53.00;;;;;;4897276;29;20112;-88
2022/03/09 11:51:07;;;;;;;15.60;11.50;;;21.20;52.20;;;;;;4897067;29;20058;-89
2022/03/09 11:54:12;;;;;;;12.68;9.30;;;21.00;54.80;;;;;;4930378;23;20052;-87
2022/03/09 11:56:41;;;;;;;12.90;9.15;;;21.40;56.40;;;;;;4940288;28;20061;-90
2022/03/09 11:59:15;;;;;;;14.40;11.32;;;21.90;57.10;;;;;;4928202;28;20040;-89
2022/03/09 12:01:58;;;;;;;17.27;12.35;;;21.90;54.80;;;;;;4945127;28;20053;-90
2022/03/09 12:04:42;;;;;;;15.85;12.88;;;21.90;54.10;;;;;;4928868;28;20024;-88
2022/03/09 12:07:10;;;;;;;17.27;13.45;;;22.00;54.30;;;;;;4928747;28;20123;-87
2022/03/09 12:09:55;;;;;;;17.17;13.63;;;21.80;53.40;;;;;;4944619;28;20028;-89
2022/03/09 12:12:21;;;;;;;19.30;14.52;;;21.70;54.00;;;;;;4926917;29;20032;-91
2022/03/09 12:15:09;;;;;;;17.02;13.55;;;21.60;52.70;;;;;;4912098;29;20096;-91
2022/03/09 12:17:49;;;;;;;18.55;14.65;;;21.40;52.90;;;;;;4933608;29;20057;-90
2022/03/09 12:20:19;;;;;;;17.67;13.88;;;21.30;53.40;;;;;;4917862;29;20068;-89
2022/03/09 12:23:05;;;;;;;17.23;13.18;;;21.30;52.00;;;;;;4928367;29;20032;-88
2022/03/09 12:25:48;;;;;;;15.75;11.30;;;21.40;53.70;;;;;;4927049;28;20100;-88
2022/03/09 12:28:23;;;;;;;;;;;21.90;54.30;;;;;;4927503;29;20036;-88
2022/03/09 12:31:19;;;;;;;17.20;13.32;;;22.00;49.60;;;;;;4924835;29;19974;-91
2022/03/09 12:33:53;;;;;;;20.48;14.63;;;21.90;50.90;;;;;;4927199;29;20028;-89
2022/03/09 12:36:24;;;;;;;15.65;11.90;;;21.80;53.40;;;;;;4932289;29;20035;-87
2022/03/09 12:39:23;;;;;;;17.60;13.35;;;22.00;54.40;;;;;;4936211;28;20035;-89
2022/03/09 12:41:54;;;;;;;16.83;12.68;;;22.30;53.50;;;;;;4937303;29;20047;-89
2022/03/09 12:44:34;;;;;;;18.73;13.93;;;22.40;54.00;;;;;;4900443;29;20044;-89
2022/03/09 12:47:03;;;;;;;16.25;13.43;;;22.50;53.40;;;;;;4908373;29;20048;-88
2022/03/09 12:49:38;;;;;;;15.57;12.57;;;22.40;54.20;;;;;;4905152;29;20064;-87
2022/03/09 12:52:05;;;;;;;19.30;14.88;;;22.60;55.40;;;;;;4904097;29;20076;-89
2022/03/09 12:54:42;;;;;;;19.63;14.32;;;22.90;53.20;;;;;;4900900;29;20044;-87
2022/03/09 12:57:17;;;;;;;18.08;14.82;;;23.00;52.80;;;;;;4895386;29;20397;-89
2022/03/09 12:59:57;;;;;;;22.95;17.30;;;23.10;52.50;;;;;;4902062;29;20028;-90
2022/03/09 13:02:24;;;;;;;20.85;15.73;;;23.10;50.50;;;;;;4896542;29;20092;-90